sensor_id;sensor_type;location;lat;lon;timestamp;pressure;altitude;pressure_sealevel;temperature;humidity
70943;BME280;59154;51.970;5.650;2022-10-16T00:00:03;100900;;;13.8526;89.4
70943;BME280;59154;51.970;5.650;2022-10-16T00:05:03;100900;;;13.90854;89.3
70943;BME280;59154;51.970;5.650;2022-10-16T00:10:03;100900;;;13.89328;89.0
70943;BME280;59154;51.970;5.650;2022-10-16T00:15:03;100900;;;13.8526;89.9
70943;BME280;59154;51.970;5.650;2022-10-16T00:20:04;100900;;;13.84242;89.2
70943;BME280;59154;51.970;5.650;2022-10-16T00:25:03;100900;;;13.82208;89.6
70943;BME280;59154;51.970;5.650;2022-10-16T00:30:04;100900;;;13.79157;89.6
70943;BME280;59154;51.970;5.650;2022-10-16T00:35:02;100900;;;13.7814;89.9
70943;BME280;59154;51.970;5.650;2022-10-16T00:40:04;100900;;;13.80174;90.4
70943;BME280;59154;51.970;5.650;2022-10-16T00:45:03;100900;;;13.7814;90.3
70943;BME280;59154;51.970;5.650;2022-10-16T00:50:07;100900;;;13.75088;90.1
70943;BME280;59154;51.970;5.650;2022-10-16T00:55:05;100900;;;13.76614;90.8
70943;BME280;59154;51.970;5.650;2022-10-16T01:00:05;100900;;;13.80682;90.9
70943;BME280;59154;51.970;5.650;2022-10-16T01:05:04;100900;;;13.86277;90.2
70943;BME280;59154;51.970;5.650;2022-10-16T01:10:10;100900;;;13.91363;90.6
70943;BME280;59154;51.970;5.650;2022-10-16T01:15:09;100900;;;13.9594;90.4
70943;BME280;59154;51.970;5.650;2022-10-16T01:20:09;100900;;;14.01026;90.4
70943;BME280;59154;51.970;5.650;2022-10-16T01:25:08;100900;;;14.02551;90.5
70943;BME280;59154;51.970;5.650;2022-10-16T01:30:08;100900;;;14.03568;90.4
70943;BME280;59154;51.970;5.650;2022-10-16T01:35:04;100900;;;14.08146;90.2
70943;BME280;59154;51.970;5.650;2022-10-16T01:40:07;100900;;;14.1374;90.4
70943;BME280;59154;51.970;5.650;2022-10-16T01:45:03;100900;;;14.23912;90.1
70943;BME280;59154;51.970;5.650;2022-10-16T01:50:04;100900;;;14.23912;90.2
70943;BME280;59154;51.970;5.650;2022-10-16T01:55:05;100900;;;14.29506;90.1
70943;BME280;59154;51.970;5.650;2022-10-16T02:00:07;100900;;;14.30523;90.4
70943;BME280;59154;51.970;5.650;2022-10-16T02:05:06;100900;;;14.31032;90.6
70943;BME280;59154;51.970;5.650;2022-10-16T02:10:04;100900;;;14.25946;90.6
70943;BME280;59154;51.970;5.650;2022-10-16T02:15:03;100900;;;14.25946;90.9
70943;BME280;59154;51.970;5.650;2022-10-16T02:20:04;100900;;;14.26455;91.0
70943;BME280;59154;51.970;5.650;2022-10-16T02:25:06;100900;;;14.20352;91.2
70943;BME280;59154;51.970;5.650;2022-10-16T02:30:06;100900;;;14.14249;91.5
70943;BME280;59154;51.970;5.650;2022-10-16T02:35:04;100900;;;14.1374;91.4
70943;BME280;59154;51.970;5.650;2022-10-16T02:40:04;100900;;;14.1374;91.6
70943;BME280;59154;51.970;5.650;2022-10-16T02:45:03;100900;;;14.12723;91.9
70943;BME280;59154;51.970;5.650;2022-10-16T02:50:04;100900;;;14.1018;91.8
70943;BME280;59154;51.970;5.650;2022-10-16T02:55:04;100900;;;14.13232;92.2
70943;BME280;59154;51.970;5.650;2022-10-16T03:00:05;100900;;;14.13232;91.8
70943;BME280;59154;51.970;5.650;2022-10-16T03:05:03;100900;;;14.20352;91.6
70943;BME280;59154;51.970;5.650;2022-10-16T03:10:03;100900;;;14.19334;91.3
70943;BME280;59154;51.970;5.650;2022-10-16T03:15:03;100900;;;14.15774;91.4
70943;BME280;59154;51.970;5.650;2022-10-16T03:20:04;100900;;;14.13232;91.5
70943;BME280;59154;51.970;5.650;2022-10-16T03:25:03;100900;;;14.14249;92.6
70943;BME280;59154;51.970;5.650;2022-10-16T03:30:03;100900;;;14.09671;91.7
70943;BME280;59154;51.970;5.650;2022-10-16T03:35:03;100900;;;14.09671;91.7
70943;BME280;59154;51.970;5.650;2022-10-16T03:40:04;100900;;;14.1374;91.4
70943;BME280;59154;51.970;5.650;2022-10-16T03:45:04;100900;;;14.12723;91.7
70943;BME280;59154;51.970;5.650;2022-10-16T03:50:04;101000;;;14.13232;91.4
70943;BME280;59154;51.970;5.650;2022-10-16T03:55:03;101000;;;14.10689;91.6
70943;BME280;59154;51.970;5.650;2022-10-16T04:00:04;100900;;;14.09671;91.4
70943;BME280;59154;51.970;5.650;2022-10-16T04:05:03;101000;;;14.01534;91.9
70943;BME280;59154;51.970;5.650;2022-10-16T04:10:04;101000;;;13.98991;91.8
70943;BME280;59154;51.970;5.650;2022-10-16T04:15:02;101000;;;13.98991;92.1
70943;BME280;59154;51.970;5.650;2022-10-16T04:20:04;101000;;;14.03568;91.8
70943;BME280;59154;51.970;5.650;2022-10-16T04:25:03;101000;;;14.05094;91.8
70943;BME280;59154;51.970;5.650;2022-10-16T04:30:03;101000;;;14.07129;91.7
70943;BME280;59154;51.970;5.650;2022-10-16T04:35:03;101000;;;14.0306;92.1
70943;BME280;59154;51.970;5.650;2022-10-16T04:40:04;101000;;;13.96957;92.1
70943;BME280;59154;51.970;5.650;2022-10-16T04:45:03;101000;;;13.95431;92.2
70943;BME280;59154;51.970;5.650;2022-10-16T04:50:04;101000;;;13.9594;92.3
70943;BME280;59154;51.970;5.650;2022-10-16T04:55:02;101000;;;13.91363;92.3
70943;BME280;59154;51.970;5.650;2022-10-16T05:00:05;101000;;;13.83225;92.7
70943;BME280;59154;51.970;5.650;2022-10-16T05:05:02;101000;;;13.75088;93.5
70943;BME280;59154;51.970;5.650;2022-10-16T05:10:03;101000;;;13.72037;93.0
70943;BME280;59154;51.970;5.650;2022-10-16T05:15:03;101000;;;13.64917;93.5
70943;BME280;59154;51.970;5.650;2022-10-16T05:20:04;101100;;;13.60339;93.0
70943;BME280;59154;51.970;5.650;2022-10-16T05:25:03;101100;;;13.55762;93.3
70943;BME280;59154;51.970;5.650;2022-10-16T05:30:03;101100;;;13.47625;93.6
70943;BME280;59154;51.970;5.650;2022-10-16T05:35:02;101100;;;13.41522;94.2
70943;BME280;59154;51.970;5.650;2022-10-16T05:40:03;101100;;;13.38979;94.2
70943;BME280;59154;51.970;5.650;2022-10-16T05:45:02;101100;;;13.42031;94.6
70943;BME280;59154;51.970;5.650;2022-10-16T05:50:03;101100;;;13.40505;94.2
70943;BME280;59154;51.970;5.650;2022-10-16T05:55:03;101100;;;13.47116;94.4
70943;BME280;59154;51.970;5.650;2022-10-16T06:00:04;101100;;;13.54745;93.9
70943;BME280;59154;51.970;5.650;2022-10-16T06:05:02;101100;;;13.71019;93.8
70943;BME280;59154;51.970;5.650;2022-10-16T06:10:04;101100;;;13.75088;93.4
70943;BME280;59154;51.970;5.650;2022-10-16T06:15:03;101100;;;13.79665;93.3
70943;BME280;59154;51.970;5.650;2022-10-16T06:20:03;101100;;;13.84751;93.2
70943;BME280;59154;51.970;5.650;2022-10-16T06:25:02;101100;;;13.97974;93.4
70943;BME280;59154;51.970;5.650;2022-10-16T06:30:03;101100;;;13.97974;93.1
70943;BME280;59154;51.970;5.650;2022-10-16T06:35:03;101100;;;14.01534;92.5
70943;BME280;59154;51.970;5.650;2022-10-16T06:40:03;101200;;;14.06111;92.6
70943;BME280;59154;51.970;5.650;2022-10-16T06:45:03;101200;;;14.15774;92.5
70943;BME280;59154;51.970;5.650;2022-10-16T06:50:04;101200;;;14.21369;92.4
70943;BME280;59154;51.970;5.650;2022-10-16T06:55:02;101200;;;14.21369;92.7
70943;BME280;59154;51.970;5.650;2022-10-16T07:00:04;101200;;;14.26963;92.5
70943;BME280;59154;51.970;5.650;2022-10-16T07:05:03;101200;;;14.31032;92.4
70943;BME280;59154;51.970;5.650;2022-10-16T07:10:03;101200;;;14.44255;92.1
70943;BME280;59154;51.970;5.650;2022-10-16T07:15:03;101200;;;14.48324;92.3
70943;BME280;59154;51.970;5.650;2022-10-16T07:20:03;101200;;;14.6053;92.1
70943;BME280;59154;51.970;5.650;2022-10-16T07:25:03;101200;;;14.76804;91.2
70943;BME280;59154;51.970;5.650;2022-10-16T07:30:03;101300;;;14.9613;91.2
70943;BME280;59154;51.970;5.650;2022-10-16T07:35:02;101300;;;15.02233;90.7
70943;BME280;59154;51.970;5.650;2022-10-16T07:40:04;101300;;;15.13422;90.5
70943;BME280;59154;51.970;5.650;2022-10-16T07:45:03;101300;;;15.38343;88.5
70943;BME280;59154;51.970;5.650;2022-10-16T07:50:03;101300;;;15.50549;89.1
70943;BME280;59154;51.970;5.650;2022-10-16T07:55:03;101300;;;15.6123;88.3
70943;BME280;59154;51.970;5.650;2022-10-16T08:00:04;101300;;;15.70384;88.4
70943;BME280;59154;51.970;5.650;2022-10-16T08:05:03;101300;;;15.81573;86.9
70943;BME280;59154;51.970;5.650;2022-10-16T08:10:03;101300;;;15.78013;87.2
70943;BME280;59154;51.970;5.650;2022-10-16T08:15:02;101300;;;15.72927;87.2
70943;BME280;59154;51.970;5.650;2022-10-16T08:20:04;101300;;;15.63772;87.7
70943;BME280;59154;51.970;5.650;2022-10-16T08:25:03;101300;;;15.39869;88.6
70943;BME280;59154;51.970;5.650;2022-10-16T08:30:03;101300;;;15.35292;89.0
70943;BME280;59154;51.970;5.650;2022-10-16T08:35:03;101300;;;15.27663;89.6
70943;BME280;59154;51.970;5.650;2022-10-16T08:40:06;101300;;;15.35292;89.3
70943;BME280;59154;51.970;5.650;2022-10-16T08:45:13;101300;;;15.48006;88.7
70943;BME280;59154;51.970;5.650;2022-10-16T08:50:09;101400;;;15.56144;88.5
70943;BME280;59154;51.970;5.650;2022-10-16T08:55:03;101400;;;15.69367;88.1
70943;BME280;59154;51.970;5.650;2022-10-16T09:00:11;101400;;;15.69367;87.3
70943;BME280;59154;51.970;5.650;2022-10-16T09:05:20;101400;;;15.74453;86.2
70943;BME280;59154;51.970;5.650;2022-10-16T09:10:14;101400;;;15.87676;85.8
70943;BME280;59154;51.970;5.650;2022-10-16T09:15:12;101400;;;16.009;85.5
70943;BME280;59154;51.970;5.650;2022-10-16T09:20:17;101400;;;16.009;85.3
70943;BME280;59154;51.970;5.650;2022-10-16T09:25:11;101400;;;16.21243;84.3
70943;BME280;59154;51.970;5.650;2022-10-16T09:30:11;101400;;;16.38535;84.9
70943;BME280;59154;51.970;5.650;2022-10-16T09:35:03;101400;;;16.55827;84.5
70943;BME280;59154;51.970;5.650;2022-10-16T09:40:05;101400;;;16.48199;84.8
70943;BME280;59154;51.970;5.650;2022-10-16T09:45:03;101400;;;16.55827;84.4
70943;BME280;59154;51.970;5.650;2022-10-16T09:50:13;101400;;;16.7312;83.8
70943;BME280;59154;51.970;5.650;2022-10-16T09:55:12;101400;;;16.69051;83.1
70943;BME280;59154;51.970;5.650;2022-10-16T10:00:08;101400;;;16.6956;83.2
70943;BME280;59154;51.970;5.650;2022-10-16T10:05:04;101400;;;16.92446;82.8
70943;BME280;59154;51.970;5.650;2022-10-16T10:10:04;101400;;;17.05161;82.7
70943;BME280;59154;51.970;5.650;2022-10-16T10:15:06;101400;;;16.99058;80.4
70943;BME280;59154;51.970;5.650;2022-10-16T10:20:22;101400;;;17.07704;79.3
70943;BME280;59154;51.970;5.650;2022-10-16T10:25:42;101400;;;17.14825;79.7
70943;BME280;59154;51.970;5.650;2022-10-16T10:30:06;101400;;;17.23979;79.5
70943;BME280;59154;51.970;5.650;2022-10-16T10:35:12;101400;;;17.33643;78.0
70943;BME280;59154;51.970;5.650;2022-10-16T10:40:09;101400;;;17.42289;78.4
70943;BME280;59154;51.970;5.650;2022-10-16T10:45:16;101500;;;17.90097;76.4
70943;BME280;59154;51.970;5.650;2022-10-16T10:50:08;101500;;;18.00269;74.9
70943;BME280;59154;51.970;5.650;2022-10-16T10:55:11;101500;;;18.23665;75.5
70943;BME280;59154;51.970;5.650;2022-10-16T11:00:13;101500;;;18.34346;72.2
70943;BME280;59154;51.970;5.650;2022-10-16T11:05:31;101500;;;18.44518;73.0
70943;BME280;59154;51.970;5.650;2022-10-16T11:10:08;101500;;;18.47569;73.6
70943;BME280;59154;51.970;5.650;2022-10-16T11:15:05;101500;;;18.50112;72.8
70943;BME280;59154;51.970;5.650;2022-10-16T11:20:11;101500;;;18.60285;71.3
70943;BME280;59154;51.970;5.650;2022-10-16T11:25:11;101500;;;18.48587;70.0
70943;BME280;59154;51.970;5.650;2022-10-16T11:30:06;101500;;;18.47061;69.8
70943;BME280;59154;51.970;5.650;2022-10-16T11:35:14;101500;;;18.81646;70.6
70943;BME280;59154;51.970;5.650;2022-10-16T11:40:14;101500;;;18.87749;68.5
70943;BME280;59154;51.970;5.650;2022-10-16T11:45:07;101500;;;19.24369;68.4
70943;BME280;59154;51.970;5.650;2022-10-16T11:50:12;101500;;;19.34541;68.2
70943;BME280;59154;51.970;5.650;2022-10-16T11:55:08;101500;;;19.73196;70.0
70943;BME280;59154;51.970;5.650;2022-10-16T12:00:06;101500;;;19.8642;67.1
70943;BME280;59154;51.970;5.650;2022-10-16T12:05:14;101500;;;19.70144;66.6
70943;BME280;59154;51.970;5.650;2022-10-16T12:10:10;101500;;;19.62006;67.2
70943;BME280;59154;51.970;5.650;2022-10-16T12:15:19;101500;;;19.28438;64.5
70943;BME280;59154;51.970;5.650;2022-10-16T12:20:20;101500;;;19.11145;65.7
70943;BME280;59154;51.970;5.650;2022-10-16T12:25:03;101500;;;19.03008;66.5
70943;BME280;59154;51.970;5.650;2022-10-16T12:30:05;101500;;;18.97921;67.1
70943;BME280;59154;51.970;5.650;2022-10-16T12:35:05;101500;;;19.03516;67.3
70943;BME280;59154;51.970;5.650;2022-10-16T12:40:13;101500;;;19.06059;66.6
70943;BME280;59154;51.970;5.650;2022-10-16T12:45:22;101500;;;19.16231;65.7
70943;BME280;59154;51.970;5.650;2022-10-16T12:50:03;101500;;;19.1674;65.5
70943;BME280;59154;51.970;5.650;2022-10-16T12:55:05;101500;;;19.27421;66.2
70943;BME280;59154;51.970;5.650;2022-10-16T13:00:09;101500;;;19.3505;66.3
70943;BME280;59154;51.970;5.650;2022-10-16T13:05:17;101500;;;19.52851;64.1
70943;BME280;59154;51.970;5.650;2022-10-16T13:10:10;101500;;;19.5692;65.1
70943;BME280;59154;51.970;5.650;2022-10-16T13:15:16;101500;;;19.53869;64.6
70943;BME280;59154;51.970;5.650;2022-10-16T13:20:12;101500;;;19.39627;63.2
70943;BME280;59154;51.970;5.650;2022-10-16T13:25:17;101500;;;19.4217;63.8
70943;BME280;59154;51.970;5.650;2022-10-16T13:30:11;101500;;;19.44714;63.8
70943;BME280;59154;51.970;5.650;2022-10-16T13:35:03;101500;;;19.58955;63.1
70943;BME280;59154;51.970;5.650;2022-10-16T13:40:17;101500;;;19.67092;63.9
70943;BME280;59154;51.970;5.650;2022-10-16T13:45:03;101500;;;19.85911;63.9
70943;BME280;59154;51.970;5.650;2022-10-16T13:50:05;101500;;;19.92523;62.6
70943;BME280;59154;51.970;5.650;2022-10-16T13:55:04;101500;;;20.0473;63.1
70943;BME280;59154;51.970;5.650;2022-10-16T14:00:17;101500;;;20.22531;63.7
70943;BME280;59154;51.970;5.650;2022-10-16T14:05:04;101500;;;20.11342;63.0
70943;BME280;59154;51.970;5.650;2022-10-16T14:10:05;101500;;;20.13376;62.6
70943;BME280;59154;51.970;5.650;2022-10-16T14:15:03;101500;;;20.13885;63.4
70943;BME280;59154;51.970;5.650;2022-10-16T14:20:05;101500;;;20.14902;64.6
70943;BME280;59154;51.970;5.650;2022-10-16T14:25:13;101600;;;20.24566;63.7
70943;BME280;59154;51.970;5.650;2022-10-16T14:30:12;101500;;;20.16428;63.3
70943;BME280;59154;51.970;5.650;2022-10-16T14:35:02;101500;;;20.23548;64.4
70943;BME280;59154;51.970;5.650;2022-10-16T14:40:04;101500;;;20.16428;63.6
70943;BME280;59154;51.970;5.650;2022-10-16T14:45:09;101500;;;19.94557;63.4
70943;BME280;59154;51.970;5.650;2022-10-16T14:50:02;101500;;;19.81334;63.6
70943;BME280;59154;51.970;5.650;2022-10-16T14:55:03;101600;;;19.71161;64.6
70943;BME280;59154;51.970;5.650;2022-10-16T15:00:10;101600;;;19.66075;64.9
70943;BME280;59154;51.970;5.650;2022-10-16T15:05:12;101500;;;19.6811;64.9
70943;BME280;59154;51.970;5.650;2022-10-16T15:10:03;101500;;;19.72179;64.9
70943;BME280;59154;51.970;5.650;2022-10-16T15:15:21;101500;;;19.67092;65.4
70943;BME280;59154;51.970;5.650;2022-10-16T15:20:04;101500;;;19.66075;65.9
70943;BME280;59154;51.970;5.650;2022-10-16T15:25:10;101500;;;19.58446;67.2
70943;BME280;59154;51.970;5.650;2022-10-16T15:30:02;101500;;;19.57429;67.1
70943;BME280;59154;51.970;5.650;2022-10-16T15:35:03;101500;;;19.47765;67.1
70943;BME280;59154;51.970;5.650;2022-10-16T15:40:03;101500;;;19.40136;67.0
70943;BME280;59154;51.970;5.650;2022-10-16T15:45:03;101500;;;19.203;68.8
70943;BME280;59154;51.970;5.650;2022-10-16T15:50:04;101500;;;19.03516;69.7
70943;BME280;59154;51.970;5.650;2022-10-16T15:55:02;101500;;;18.9487;70.2
70943;BME280;59154;51.970;5.650;2022-10-16T16:00:05;101500;;;18.91818;71.0
70943;BME280;59154;51.970;5.650;2022-10-16T16:05:03;101500;;;18.60285;72.0
70943;BME280;59154;51.970;5.650;2022-10-16T16:10:04;101600;;;18.62828;71.7
70943;BME280;59154;51.970;5.650;2022-10-16T16:15:04;101600;;;18.57742;72.3
70943;BME280;59154;51.970;5.650;2022-10-16T16:20:04;101600;;;18.42992;73.9
70943;BME280;59154;51.970;5.650;2022-10-16T16:25:03;101500;;;18.28242;74.6
70943;BME280;59154;51.970;5.650;2022-10-16T16:30:04;101600;;;18.22648;74.5
70943;BME280;59154;51.970;5.650;2022-10-16T16:35:03;101600;;;18.14002;74.7
70943;BME280;59154;51.970;5.650;2022-10-16T16:40:04;101600;;;18.14002;75.6
70943;BME280;59154;51.970;5.650;2022-10-16T16:45:03;101600;;;18.00269;76.0
70943;BME280;59154;51.970;5.650;2022-10-16T16:50:04;101600;;;17.98235;75.7
70943;BME280;59154;51.970;5.650;2022-10-16T16:55:03;101600;;;17.95183;76.1
70943;BME280;59154;51.970;5.650;2022-10-16T17:00:04;101600;;;17.88571;76.5
70943;BME280;59154;51.970;5.650;2022-10-16T17:05:02;101600;;;17.74839;77.2
70943;BME280;59154;51.970;5.650;2022-10-16T17:10:03;101600;;;17.69753;77.2
70943;BME280;59154;51.970;5.650;2022-10-16T17:15:03;101600;;;17.66193;76.7
70943;BME280;59154;51.970;5.650;2022-10-16T17:20:03;101600;;;17.6365;76.9
70943;BME280;59154;51.970;5.650;2022-10-16T17:25:02;101600;;;17.6721;76.4
70943;BME280;59154;51.970;5.650;2022-10-16T17:30:04;101600;;;17.61616;76.4
70943;BME280;59154;51.970;5.650;2022-10-16T17:35:02;101600;;;17.60598;75.8
70943;BME280;59154;51.970;5.650;2022-10-16T17:40:04;101600;;;17.55004;76.5
70943;BME280;59154;51.970;5.650;2022-10-16T17:45:03;101600;;;17.54495;76.5
70943;BME280;59154;51.970;5.650;2022-10-16T17:50:04;101600;;;17.5653;76.7
70943;BME280;59154;51.970;5.650;2022-10-16T17:55:02;101600;;;17.53478;77.2
70943;BME280;59154;51.970;5.650;2022-10-16T18:00:04;101600;;;17.46866;78.2
70943;BME280;59154;51.970;5.650;2022-10-16T18:05:02;101600;;;17.3822;77.8
70943;BME280;59154;51.970;5.650;2022-10-16T18:10:04;101600;;;17.33643;77.6
70943;BME280;59154;51.970;5.650;2022-10-16T18:15:04;101600;;;17.37711;77.6
70943;BME280;59154;51.970;5.650;2022-10-16T18:20:05;101600;;;17.30083;77.9
70943;BME280;59154;51.970;5.650;2022-10-16T18:25:03;101600;;;17.17368;78.5
70943;BME280;59154;51.970;5.650;2022-10-16T18:30:04;101600;;;17.13299;78.7
70943;BME280;59154;51.970;5.650;2022-10-16T18:35:02;101600;;;17.14825;78.7
70943;BME280;59154;51.970;5.650;2022-10-16T18:40:03;101600;;;17.22962;78.2
70943;BME280;59154;51.970;5.650;2022-10-16T18:45:02;101700;;;17.32117;77.8
70943;BME280;59154;51.970;5.650;2022-10-16T18:50:04;101700;;;17.31608;78.0
70943;BME280;59154;51.970;5.650;2022-10-16T18:55:03;101700;;;17.27031;78.4
70943;BME280;59154;51.970;5.650;2022-10-16T19:00:04;101700;;;17.311;78.4
70943;BME280;59154;51.970;5.650;2022-10-16T19:05:03;101700;;;17.28557;79.0
70943;BME280;59154;51.970;5.650;2022-10-16T19:10:03;101700;;;17.26014;79.6
70943;BME280;59154;51.970;5.650;2022-10-16T19:15:02;101700;;;17.1635;80.2
70943;BME280;59154;51.970;5.650;2022-10-16T19:20:04;101700;;;17.2754;80.1
70943;BME280;59154;51.970;5.650;2022-10-16T19:25:02;101600;;;17.19911;80.9
70943;BME280;59154;51.970;5.650;2022-10-16T19:30:04;101600;;;17.15333;81.5
70943;BME280;59154;51.970;5.650;2022-10-16T19:35:02;101700;;;17.22962;81.3
70943;BME280;59154;51.970;5.650;2022-10-16T19:40:04;101700;;;17.13299;82.2
70943;BME280;59154;51.970;5.650;2022-10-16T19:45:03;101700;;;17.0567;82.6
70943;BME280;59154;51.970;5.650;2022-10-16T19:50:03;101700;;;17.06178;82.6
70943;BME280;59154;51.970;5.650;2022-10-16T19:55:02;101700;;;17.02618;82.9
70943;BME280;59154;51.970;5.650;2022-10-16T20:00:04;101700;;;16.99567;82.9
70943;BME280;59154;51.970;5.650;2022-10-16T20:05:03;101700;;;16.98041;83.1
70943;BME280;59154;51.970;5.650;2022-10-16T20:10:03;101700;;;16.95498;83.6
70943;BME280;59154;51.970;5.650;2022-10-16T20:15:02;101700;;;16.97024;84.2
70943;BME280;59154;51.970;5.650;2022-10-16T20:20:04;101600;;;16.93464;84.9
70943;BME280;59154;51.970;5.650;2022-10-16T20:25:03;101700;;;16.89395;85.7
70943;BME280;59154;51.970;5.650;2022-10-16T20:30:03;101700;;;16.69051;86.2
70943;BME280;59154;51.970;5.650;2022-10-16T20:35:03;101700;;;16.71085;86.4
70943;BME280;59154;51.970;5.650;2022-10-16T20:40:04;101700;;;16.82274;86.1
70943;BME280;59154;51.970;5.650;2022-10-16T20:45:03;101700;;;16.61931;87.1
70943;BME280;59154;51.970;5.650;2022-10-16T20:50:03;101700;;;16.62948;87.9
70943;BME280;59154;51.970;5.650;2022-10-16T20:55:02;101600;;;16.65491;87.5
70943;BME280;59154;51.970;5.650;2022-10-16T21:00:04;101600;;;16.61931;87.7
70943;BME280;59154;51.970;5.650;2022-10-16T21:05:02;101600;;;16.41078;88.7
70943;BME280;59154;51.970;5.650;2022-10-16T21:10:04;101700;;;16.46673;88.8
70943;BME280;59154;51.970;5.650;2022-10-16T21:15:04;101600;;;16.56845;88.4
70943;BME280;59154;51.970;5.650;2022-10-16T21:20:04;101600;;;16.49724;88.3
70943;BME280;59154;51.970;5.650;2022-10-16T21:25:03;101600;;;16.60405;87.8
70943;BME280;59154;51.970;5.650;2022-10-16T21:30:03;101600;;;16.53285;87.9
70943;BME280;59154;51.970;5.650;2022-10-16T21:35:03;101600;;;16.55827;87.7
70943;BME280;59154;51.970;5.650;2022-10-16T21:40:05;101600;;;16.55827;88.0
70943;BME280;59154;51.970;5.650;2022-10-16T21:45:03;101600;;;16.67017;87.6
70943;BME280;59154;51.970;5.650;2022-10-16T21:50:03;101600;;;16.60405;87.9
70943;BME280;59154;51.970;5.650;2022-10-16T21:55:02;101600;;;16.51759;87.3
70943;BME280;59154;51.970;5.650;2022-10-16T22:00:04;101600;;;16.54302;87.4
70943;BME280;59154;51.970;5.650;2022-10-16T22:05:02;101600;;;16.48199;88.0
70943;BME280;59154;51.970;5.650;2022-10-16T22:10:03;101600;;;16.41587;88.5
70943;BME280;59154;51.970;5.650;2022-10-16T22:15:03;101600;;;16.41587;87.6
70943;BME280;59154;51.970;5.650;2022-10-16T22:20:04;101600;;;16.32941;88.0
70943;BME280;59154;51.970;5.650;2022-10-16T22:25:03;101600;;;16.08528;89.9
70943;BME280;59154;51.970;5.650;2022-10-16T22:30:03;101600;;;16.02934;89.7
70943;BME280;59154;51.970;5.650;2022-10-16T22:35:03;101600;;;16.02934;89.8
70943;BME280;59154;51.970;5.650;2022-10-16T22:40:04;101600;;;15.91745;90.2
70943;BME280;59154;51.970;5.650;2022-10-16T22:45:03;101600;;;15.96831;90.9
70943;BME280;59154;51.970;5.650;2022-10-16T22:50:03;101600;;;15.87676;91.0
70943;BME280;59154;51.970;5.650;2022-10-16T22:55:03;101600;;;15.90728;90.8
70943;BME280;59154;51.970;5.650;2022-10-16T23:00:04;101600;;;15.89711;91.1
70943;BME280;59154;51.970;5.650;2022-10-16T23:05:03;101600;;;15.85642;91.0
70943;BME280;59154;51.970;5.650;2022-10-16T23:10:03;101600;;;15.66824;91.8
70943;BME280;59154;51.970;5.650;2022-10-16T23:15:02;101600;;;15.70893;92.0
70943;BME280;59154;51.970;5.650;2022-10-16T23:20:04;101600;;;15.62247;92.3
70943;BME280;59154;51.970;5.650;2022-10-16T23:25:03;101600;;;15.49023;92.9
70943;BME280;59154;51.970;5.650;2022-10-16T23:30:03;101600;;;15.41395;93.1
70943;BME280;59154;51.970;5.650;2022-10-16T23:35:03;101600;;;15.34783;93.3
70943;BME280;59154;51.970;5.650;2022-10-16T23:40:03;101600;;;15.33766;93.8
70943;BME280;59154;51.970;5.650;2022-10-16T23:45:03;101600;;;15.49532;93.4
70943;BME280;59154;51.970;5.650;2022-10-16T23:50:03;101600;;;15.51566;93.9
70943;BME280;59154;51.970;5.650;2022-10-16T23:55:03;101500;;;15.46989;94.1
